Ana Sayfa
METAR-TAF:

METAR-TAF

Havaalanları :

St. Gallen, İsviçre

Enlem: 47-29-06N, Boylam: 009-33-43E, yükseklik: 398 m

Güncel hava durumu gözlemi

Rapor saat 08:20 UTC de 26 dakika önce yapıldı.
Rüzgar değişken yönden 3 kt
Sıcaklık 6°C
Nem 81%
Basınç 1029 hPa
Görüş mesafesi 10 km veya daha fazla
1500 m altında bulut yok ve kümülonimbus yok

METAR: LSZR 230820Z VRB03KT CAVOK 06/03 Q1029 NOSIG RMK C

Saat: 09:46 (08:46 UTC)

Tahmin

Rapor saat 08:25 UTC de 21 dakika önce yapıldı.
Ayın 23'si saat 09 UTC'den ayın 23'si saat 18 UTC'ye kadar geçerli Tahmin
Rüzgar batı/kuzeybatıdan 3 kt
Görüş mesafesi 10 km veya daha fazla
1500 m altında bulut yok ve kümülonimbus yok

TAF: LSZR 230825Z 2309/2318 29003KT CAVOK

4.000'den fazla havaalanı için hava durumu gözlemleri ve tahminleri (METAR ve TAF raporları).

Kullanılabilir istasyonlar harita üzerinde sarı ve kırmızı noktalarla gösterilir.

İstasyonun adını görmek için fareyi noktanın üzerinde gezdirin.

Sonrasında hava gözlem ve tahminlerini görmek için tıklayın.

Haritayı değiştirmek için: yaklaştırmak için siyah artı işaretli yeşil düğmeye ve uzaklaştırmak için de eksi işaretli düğmeye hızla tıklayın; bitişik haritalar için yeşil okları kullanın.


METAR-TAF: